sensor_id;sensor_type;location;lat;lon;timestamp;pressure;altitude;pressure_sealevel;temperature;humidity
26823;BME280;14852;51.910;8.878;2023-05-29T00:00:07;100301.66;;;16.86;45.41
26823;BME280;14852;51.910;8.878;2023-05-29T00:02:35;100306.31;;;16.82;45.60
26823;BME280;14852;51.910;8.878;2023-05-29T00:05:01;100304.94;;;16.77;45.49
26823;BME280;14852;51.910;8.878;2023-05-29T00:07:29;100301.66;;;16.73;45.56
26823;BME280;14852;51.910;8.878;2023-05-29T00:09:56;100308.09;;;16.69;45.66
26823;BME280;14852;51.910;8.878;2023-05-29T00:12:21;100304.94;;;16.64;45.87
26823;BME280;14852;51.910;8.878;2023-05-29T00:14:49;100307.84;;;16.59;45.88
26823;BME280;14852;51.910;8.878;2023-05-29T00:17:15;100304.69;;;16.54;46.30
26823;BME280;14852;51.910;8.878;2023-05-29T00:19:42;100307.75;;;16.48;46.53
26823;BME280;14852;51.910;8.878;2023-05-29T00:22:08;100307.22;;;16.43;46.01
26823;BME280;14852;51.910;8.878;2023-05-29T00:24:34;100310.03;;;16.40;46.51
26823;BME280;14852;51.910;8.878;2023-05-29T00:27:00;100308.56;;;16.36;46.24
26823;BME280;14852;51.910;8.878;2023-05-29T00:29:26;100312.25;;;16.34;46.71
26823;BME280;14852;51.910;8.878;2023-05-29T00:31:54;100308.13;;;16.29;46.36
26823;BME280;14852;51.910;8.878;2023-05-29T00:34:22;100307.38;;;16.27;46.63
26823;BME280;14852;51.910;8.878;2023-05-29T00:36:51;100308.56;;;16.23;47.09
26823;BME280;14852;51.910;8.878;2023-05-29T00:39:17;100308.00;;;16.18;46.98
26823;BME280;14852;51.910;8.878;2023-05-29T00:41:43;100308.34;;;16.14;47.26
26823;BME280;14852;51.910;8.878;2023-05-29T00:44:09;100317.25;;;16.11;47.08
26823;BME280;14852;51.910;8.878;2023-05-29T00:46:35;100315.84;;;16.06;47.25
26823;BME280;14852;51.910;8.878;2023-05-29T00:49:02;100324.03;;;16.01;47.23
26823;BME280;14852;51.910;8.878;2023-05-29T00:51:30;100318.25;;;15.96;47.31
26823;BME280;14852;51.910;8.878;2023-05-29T00:53:57;100325.56;;;15.91;47.57
26823;BME280;14852;51.910;8.878;2023-05-29T00:56:24;100319.78;;;15.86;47.88
26823;BME280;14852;51.910;8.878;2023-05-29T00:58:52;100327.84;;;15.83;47.92
26823;BME280;14852;51.910;8.878;2023-05-29T01:01:18;100324.59;;;15.79;48.04
26823;BME280;14852;51.910;8.878;2023-05-29T01:03:45;100328.34;;;15.75;48.12
26823;BME280;14852;51.910;8.878;2023-05-29T01:06:11;100337.22;;;15.73;47.91
26823;BME280;14852;51.910;8.878;2023-05-29T01:08:37;100341.81;;;15.69;48.09
26823;BME280;14852;51.910;8.878;2023-05-29T01:11:21;100344.56;;;15.68;47.91
26823;BME280;14852;51.910;8.878;2023-05-29T01:13:51;100336.34;;;15.60;48.21
26823;BME280;14852;51.910;8.878;2023-05-29T01:16:40;100340.00;;;15.57;48.23
26823;BME280;14852;51.910;8.878;2023-05-29T01:19:48;100345.41;;;15.54;48.16
26823;BME280;14852;51.910;8.878;2023-05-29T01:26:11;100348.91;;;15.40;47.93
26823;BME280;14852;51.910;8.878;2023-05-29T01:28:44;100354.81;;;15.30;48.28
26823;BME280;14852;51.910;8.878;2023-05-29T01:31:14;100358.53;;;15.26;48.76
26823;BME280;14852;51.910;8.878;2023-05-29T01:33:46;100361.38;;;15.23;48.60
26823;BME280;14852;51.910;8.878;2023-05-29T01:36:16;100358.94;;;15.19;48.53
26823;BME280;14852;51.910;8.878;2023-05-29T01:38:42;100353.88;;;15.16;48.46
26823;BME280;14852;51.910;8.878;2023-05-29T01:41:11;100361.06;;;15.13;48.83
26823;BME280;14852;51.910;8.878;2023-05-29T01:43:38;100359.50;;;15.10;48.31
26823;BME280;14852;51.910;8.878;2023-05-29T01:46:04;100361.28;;;15.10;48.60
26823;BME280;14852;51.910;8.878;2023-05-29T01:48:30;100358.84;;;15.07;48.63
26823;BME280;14852;51.910;8.878;2023-05-29T01:50:56;100371.19;;;15.05;48.73
26823;BME280;14852;51.910;8.878;2023-05-29T01:53:24;100365.19;;;15.03;48.83
26823;BME280;14852;51.910;8.878;2023-05-29T01:55:50;100363.59;;;15.00;48.67
26823;BME280;14852;51.910;8.878;2023-05-29T01:58:17;100368.09;;;14.98;48.64
26823;BME280;14852;51.910;8.878;2023-05-29T02:00:43;100368.28;;;14.95;48.52
26823;BME280;14852;51.910;8.878;2023-05-29T02:03:09;100372.75;;;14.93;48.68
26823;BME280;14852;51.910;8.878;2023-05-29T02:05:35;100372.09;;;14.90;48.55
26823;BME280;14852;51.910;8.878;2023-05-29T02:08:00;100370.41;;;14.89;48.75
26823;BME280;14852;51.910;8.878;2023-05-29T02:10:26;100367.16;;;14.85;48.91
26823;BME280;14852;51.910;8.878;2023-05-29T02:12:52;100370.03;;;14.80;48.66
26823;BME280;14852;51.910;8.878;2023-05-29T02:15:18;100371.06;;;14.78;48.82
26823;BME280;14852;51.910;8.878;2023-05-29T02:17:44;100375.66;;;14.74;49.06
26823;BME280;14852;51.910;8.878;2023-05-29T02:20:10;100375.91;;;14.70;48.78
26823;BME280;14852;51.910;8.878;2023-05-29T02:22:37;100376.09;;;14.67;49.09
26823;BME280;14852;51.910;8.878;2023-05-29T02:25:03;100376.28;;;14.64;49.09
26823;BME280;14852;51.910;8.878;2023-05-29T02:27:29;100372.25;;;14.58;49.28
26823;BME280;14852;51.910;8.878;2023-05-29T02:29:54;100376.72;;;14.56;48.99
26823;BME280;14852;51.910;8.878;2023-05-29T02:32:20;100383.00;;;14.54;49.48
26823;BME280;14852;51.910;8.878;2023-05-29T02:34:47;100382.31;;;14.50;49.19
26823;BME280;14852;51.910;8.878;2023-05-29T02:37:13;100379.13;;;14.45;49.24
26823;BME280;14852;51.910;8.878;2023-05-29T02:39:39;100383.72;;;14.41;49.74
26823;BME280;14852;51.910;8.878;2023-05-29T02:42:05;100386.56;;;14.37;49.80
26823;BME280;14852;51.910;8.878;2023-05-29T02:44:31;100391.09;;;14.33;49.59
26823;BME280;14852;51.910;8.878;2023-05-29T02:46:57;100393.91;;;14.30;49.49
26823;BME280;14852;51.910;8.878;2023-05-29T02:49:23;100393.25;;;14.27;49.58
26823;BME280;14852;51.910;8.878;2023-05-29T02:51:51;100395.25;;;14.22;49.73
26823;BME280;14852;51.910;8.878;2023-05-29T02:54:18;100401.63;;;14.18;49.90
26823;BME280;14852;51.910;8.878;2023-05-29T02:56:46;100397.41;;;14.15;49.74
26823;BME280;14852;51.910;8.878;2023-05-29T02:59:12;100399.25;;;14.13;49.70
26823;BME280;14852;51.910;8.878;2023-05-29T03:01:37;100388.88;;;14.11;49.91
26823;BME280;14852;51.910;8.878;2023-05-29T03:04:04;100390.00;;;14.07;49.99
26823;BME280;14852;51.910;8.878;2023-05-29T03:06:30;100385.72;;;14.06;49.68
26823;BME280;14852;51.910;8.878;2023-05-29T03:08:58;100397.09;;;14.05;49.86
26823;BME280;14852;51.910;8.878;2023-05-29T03:11:25;100395.47;;;14.03;49.95
26823;BME280;14852;51.910;8.878;2023-05-29T03:13:52;100388.66;;;14.00;49.58
26823;BME280;14852;51.910;8.878;2023-05-29T03:16:17;100387.88;;;13.98;49.60
26823;BME280;14852;51.910;8.878;2023-05-29T03:18:44;100395.81;;;13.97;49.85
26823;BME280;14852;51.910;8.878;2023-05-29T03:21:11;100397.69;;;13.95;49.92
26823;BME280;14852;51.910;8.878;2023-05-29T03:23:37;100389.84;;;13.95;49.95
26823;BME280;14852;51.910;8.878;2023-05-29T03:26:04;100394.22;;;13.94;49.72
26823;BME280;14852;51.910;8.878;2023-05-29T03:28:33;100394.22;;;13.94;49.82
26823;BME280;14852;51.910;8.878;2023-05-29T03:31:02;100389.94;;;13.93;49.92
26823;BME280;14852;51.910;8.878;2023-05-29T03:33:27;100393.38;;;13.94;50.06
26823;BME280;14852;51.910;8.878;2023-05-29T03:36:11;100388.72;;;13.99;49.53
26823;BME280;14852;51.910;8.878;2023-05-29T03:38:37;100396.00;;;13.94;49.46
26823;BME280;14852;51.910;8.878;2023-05-29T03:41:03;100394.31;;;13.93;49.88
26823;BME280;14852;51.910;8.878;2023-05-29T03:43:29;100400.47;;;13.92;49.96
26823;BME280;14852;51.910;8.878;2023-05-29T03:45:55;100401.38;;;13.91;49.80
26823;BME280;14852;51.910;8.878;2023-05-29T03:48:21;100404.00;;;13.91;49.91
26823;BME280;14852;51.910;8.878;2023-05-29T03:50:48;100408.31;;;13.92;49.66
26823;BME280;14852;51.910;8.878;2023-05-29T03:53:19;100409.06;;;13.94;50.20
26823;BME280;14852;51.910;8.878;2023-05-29T03:55:45;100407.22;;;13.96;49.90
26823;BME280;14852;51.910;8.878;2023-05-29T03:58:11;100408.78;;;13.98;49.99
26823;BME280;14852;51.910;8.878;2023-05-29T04:00:38;100407.78;;;14.01;50.05
26823;BME280;14852;51.910;8.878;2023-05-29T04:03:04;100412.84;;;14.04;49.83
26823;BME280;14852;51.910;8.878;2023-05-29T04:05:30;100410.06;;;14.07;49.82
26823;BME280;14852;51.910;8.878;2023-05-29T04:07:57;100417.63;;;14.11;49.71
26823;BME280;14852;51.910;8.878;2023-05-29T04:10:23;100425.22;;;14.16;50.03
26823;BME280;14852;51.910;8.878;2023-05-29T04:12:51;100425.78;;;14.21;49.61
26823;BME280;14852;51.910;8.878;2023-05-29T04:15:17;100424.59;;;14.27;49.69
26823;BME280;14852;51.910;8.878;2023-05-29T04:17:43;100426.00;;;14.32;49.50
26823;BME280;14852;51.910;8.878;2023-05-29T04:20:09;100428.16;;;14.41;49.50
26823;BME280;14852;51.910;8.878;2023-05-29T04:22:36;100429.31;;;14.52;49.66
26823;BME280;14852;51.910;8.878;2023-05-29T04:25:03;100433.16;;;14.60;49.67
26823;BME280;14852;51.910;8.878;2023-05-29T04:27:32;100434.31;;;14.70;49.05
26823;BME280;14852;51.910;8.878;2023-05-29T04:30:07;100438.66;;;15.00;49.12
26823;BME280;14852;51.910;8.878;2023-05-29T04:32:37;100436.72;;;15.60;47.38
26823;BME280;14852;51.910;8.878;2023-05-29T04:35:04;100434.44;;;16.63;45.85
26823;BME280;14852;51.910;8.878;2023-05-29T04:37:33;100428.88;;;17.69;43.43
26823;BME280;14852;51.910;8.878;2023-05-29T04:40:06;100424.00;;;18.71;41.77
26823;BME280;14852;51.910;8.878;2023-05-29T04:42:38;100421.84;;;19.56;40.25
26823;BME280;14852;51.910;8.878;2023-05-29T04:45:06;100419.03;;;20.22;39.38
26823;BME280;14852;51.910;8.878;2023-05-29T04:47:35;100422.47;;;20.87;38.45
26823;BME280;14852;51.910;8.878;2023-05-29T04:50:02;100422.22;;;21.41;38.02
26823;BME280;14852;51.910;8.878;2023-05-29T04:52:28;100425.00;;;21.89;36.93
26823;BME280;14852;51.910;8.878;2023-05-29T04:54:55;100418.66;;;22.30;36.50
26823;BME280;14852;51.910;8.878;2023-05-29T04:57:22;100421.84;;;22.63;36.12
26823;BME280;14852;51.910;8.878;2023-05-29T04:59:49;100419.03;;;23.03;35.60
26823;BME280;14852;51.910;8.878;2023-05-29T05:02:14;100426.38;;;23.56;35.47
26823;BME280;14852;51.910;8.878;2023-05-29T05:04:40;100429.22;;;23.99;34.67
26823;BME280;14852;51.910;8.878;2023-05-29T05:07:09;100430.53;;;24.31;34.34
26823;BME280;14852;51.910;8.878;2023-05-29T05:09:35;100416.25;;;24.67;33.68
26823;BME280;14852;51.910;8.878;2023-05-29T05:12:02;100421.97;;;24.98;33.15
26823;BME280;14852;51.910;8.878;2023-05-29T05:14:28;100419.13;;;25.25;33.19
26823;BME280;14852;51.910;8.878;2023-05-29T05:16:54;100420.81;;;25.60;32.70
26823;BME280;14852;51.910;8.878;2023-05-29T05:19:20;100422.41;;;25.95;32.38
26823;BME280;14852;51.910;8.878;2023-05-29T05:21:46;100411.97;;;26.26;31.86
26823;BME280;14852;51.910;8.878;2023-05-29T05:24:13;100407.16;;;26.62;31.50
26823;BME280;14852;51.910;8.878;2023-05-29T05:26:40;100410.66;;;26.95;30.67
26823;BME280;14852;51.910;8.878;2023-05-29T05:29:06;100407.00;;;27.35;30.46
26823;BME280;14852;51.910;8.878;2023-05-29T05:31:34;100411.44;;;27.67;29.93
26823;BME280;14852;51.910;8.878;2023-05-29T05:33:59;100413.56;;;28.03;29.67
26823;BME280;14852;51.910;8.878;2023-05-29T05:36:25;100412.28;;;28.44;29.02
26823;BME280;14852;51.910;8.878;2023-05-29T05:38:58;100414.97;;;28.82;29.78
26823;BME280;14852;51.910;8.878;2023-05-29T05:41:24;100416.94;;;29.03;28.80
26823;BME280;14852;51.910;8.878;2023-05-29T05:43:52;100410.53;;;29.33;28.01
26823;BME280;14852;51.910;8.878;2023-05-29T05:46:25;100413.53;;;29.53;27.76
26823;BME280;14852;51.910;8.878;2023-05-29T05:48:51;100407.88;;;29.63;27.85
26823;BME280;14852;51.910;8.878;2023-05-29T05:51:17;100412.94;;;29.72;27.38
26823;BME280;14852;51.910;8.878;2023-05-29T05:53:43;100405.09;;;29.56;27.75
26823;BME280;14852;51.910;8.878;2023-05-29T05:56:09;100410.88;;;29.38;27.82
26823;BME280;14852;51.910;8.878;2023-05-29T05:58:35;100411.03;;;29.51;27.84
26823;BME280;14852;51.910;8.878;2023-05-29T06:01:02;100408.78;;;29.70;27.89
26823;BME280;14852;51.910;8.878;2023-05-29T06:03:28;100408.78;;;29.70;27.54
26823;BME280;14852;51.910;8.878;2023-05-29T06:06:00;100412.41;;;29.62;27.71
26823;BME280;14852;51.910;8.878;2023-05-29T06:08:26;100410.44;;;29.71;27.65
26823;BME280;14852;51.910;8.878;2023-05-29T06:10:52;100411.66;;;29.89;27.41
26823;BME280;14852;51.910;8.878;2023-05-29T06:13:18;100414.81;;;29.93;27.57
26823;BME280;14852;51.910;8.878;2023-05-29T06:15:49;100420.34;;;29.92;27.24
26823;BME280;14852;51.910;8.878;2023-05-29T06:18:15;100423.75;;;29.64;27.39
26823;BME280;14852;51.910;8.878;2023-05-29T06:20:42;100429.50;;;29.17;28.35
26823;BME280;14852;51.910;8.878;2023-05-29T06:23:08;100423.59;;;29.07;28.34
26823;BME280;14852;51.910;8.878;2023-05-29T06:25:35;100428.00;;;29.14;28.54
26823;BME280;14852;51.910;8.878;2023-05-29T06:28:01;100422.28;;;29.17;28.30
26823;BME280;14852;51.910;8.878;2023-05-29T06:30:28;100414.53;;;28.93;28.45
26823;BME280;14852;51.910;8.878;2023-05-29T06:32:54;100421.50;;;28.79;28.75
26823;BME280;14852;51.910;8.878;2023-05-29T06:35:26;100425.50;;;28.61;28.83
26823;BME280;14852;51.910;8.878;2023-05-29T06:37:53;100423.47;;;28.63;28.63
26823;BME280;14852;51.910;8.878;2023-05-29T06:40:20;100416.44;;;28.85;28.71
26823;BME280;14852;51.910;8.878;2023-05-29T06:42:45;100424.31;;;29.15;28.31
26823;BME280;14852;51.910;8.878;2023-05-29T06:45:14;100416.41;;;29.51;27.65
26823;BME280;14852;51.910;8.878;2023-05-29T06:47:42;100421.00;;;29.94;27.51
26823;BME280;14852;51.910;8.878;2023-05-29T06:50:08;100418.63;;;30.41;26.57
26823;BME280;14852;51.910;8.878;2023-05-29T06:52:36;100427.44;;;30.84;26.48
26823;BME280;14852;51.910;8.878;2023-05-29T06:55:20;100423.56;;;31.15;25.85
26823;BME280;14852;51.910;8.878;2023-05-29T06:57:46;100412.88;;;31.28;25.48
26823;BME280;14852;51.910;8.878;2023-05-29T07:00:13;100419.09;;;31.28;25.57
26823;BME280;14852;51.910;8.878;2023-05-29T07:02:45;100424.41;;;31.15;25.14
26823;BME280;14852;51.910;8.878;2023-05-29T07:05:11;100441.84;;;31.33;25.09
26823;BME280;14852;51.910;8.878;2023-05-29T07:07:37;100443.88;;;31.30;24.86
26823;BME280;14852;51.910;8.878;2023-05-29T07:10:03;100442.53;;;31.48;24.76
26823;BME280;14852;51.910;8.878;2023-05-29T07:12:29;100443.50;;;31.75;24.76
26823;BME280;14852;51.910;8.878;2023-05-29T07:14:56;100451.22;;;31.84;24.67
26823;BME280;14852;51.910;8.878;2023-05-29T07:17:21;100447.31;;;32.00;24.01
26823;BME280;14852;51.910;8.878;2023-05-29T07:19:56;100458.75;;;32.22;23.96
26823;BME280;14852;51.910;8.878;2023-05-29T07:22:22;100457.97;;;32.34;23.72
26823;BME280;14852;51.910;8.878;2023-05-29T07:24:48;100457.75;;;32.43;23.79
26823;BME280;14852;51.910;8.878;2023-05-29T07:27:14;100453.41;;;32.68;23.40
26823;BME280;14852;51.910;8.878;2023-05-29T07:29:40;100461.91;;;32.58;22.80
26823;BME280;14852;51.910;8.878;2023-05-29T07:32:06;100460.91;;;32.79;22.41
26823;BME280;14852;51.910;8.878;2023-05-29T07:34:31;100455.91;;;32.89;22.86
26823;BME280;14852;51.910;8.878;2023-05-29T07:37:04;100457.78;;;33.02;22.36
26823;BME280;14852;51.910;8.878;2023-05-29T07:39:33;100455.72;;;33.04;22.23
26823;BME280;14852;51.910;8.878;2023-05-29T07:42:03;100456.13;;;33.07;21.89
26823;BME280;14852;51.910;8.878;2023-05-29T07:44:31;100456.75;;;32.90;21.84
26823;BME280;14852;51.910;8.878;2023-05-29T07:46:56;100455.72;;;32.51;22.43
26823;BME280;14852;51.910;8.878;2023-05-29T07:49:31;100458.41;;;32.58;22.76
26823;BME280;14852;51.910;8.878;2023-05-29T07:51:56;100472.88;;;32.70;22.46
26823;BME280;14852;51.910;8.878;2023-05-29T07:54:23;100473.13;;;32.82;22.33
26823;BME280;14852;51.910;8.878;2023-05-29T07:56:49;100469.81;;;32.93;21.77
26823;BME280;14852;51.910;8.878;2023-05-29T07:59:16;100463.97;;;33.16;21.72
26823;BME280;14852;51.910;8.878;2023-05-29T08:01:42;100467.06;;;33.46;21.71
26823;BME280;14852;51.910;8.878;2023-05-29T08:04:19;100469.13;;;33.37;21.79
26823;BME280;14852;51.910;8.878;2023-05-29T08:06:45;100460.22;;;33.36;21.73
26823;BME280;14852;51.910;8.878;2023-05-29T08:09:10;100454.44;;;33.26;21.59
26823;BME280;14852;51.910;8.878;2023-05-29T08:11:37;100458.81;;;33.01;22.11
26823;BME280;14852;51.910;8.878;2023-05-29T08:14:03;100461.72;;;32.93;22.12
26823;BME280;14852;51.910;8.878;2023-05-29T08:16:30;100460.88;;;32.53;22.94
26823;BME280;14852;51.910;8.878;2023-05-29T08:18:56;100463.13;;;32.36;22.73
26823;BME280;14852;51.910;8.878;2023-05-29T08:21:22;100463.47;;;32.07;22.90
26823;BME280;14852;51.910;8.878;2023-05-29T08:23:47;100468.31;;;31.77;23.31
26823;BME280;14852;51.910;8.878;2023-05-29T08:26:13;100471.09;;;31.62;23.48
26823;BME280;14852;51.910;8.878;2023-05-29T08:28:39;100462.72;;;30.81;24.13
26823;BME280;14852;51.910;8.878;2023-05-29T08:31:06;100471.09;;;29.93;25.31
26823;BME280;14852;51.910;8.878;2023-05-29T08:33:31;100470.41;;;29.40;26.38
26823;BME280;14852;51.910;8.878;2023-05-29T08:35:59;100478.06;;;28.91;27.14
26823;BME280;14852;51.910;8.878;2023-05-29T08:38:26;100478.09;;;28.23;27.60
26823;BME280;14852;51.910;8.878;2023-05-29T08:40:51;100465.13;;;27.72;28.54
26823;BME280;14852;51.910;8.878;2023-05-29T08:43:22;100481.69;;;27.60;28.79
26823;BME280;14852;51.910;8.878;2023-05-29T08:45:54;100478.66;;;27.71;28.29
26823;BME280;14852;51.910;8.878;2023-05-29T08:48:24;100481.81;;;27.74;28.43
26823;BME280;14852;51.910;8.878;2023-05-29T08:50:53;100490.91;;;27.41;29.05
26823;BME280;14852;51.910;8.878;2023-05-29T08:53:24;100488.56;;;27.38;28.70
26823;BME280;14852;51.910;8.878;2023-05-29T08:55:52;100490.78;;;27.18;28.92
26823;BME280;14852;51.910;8.878;2023-05-29T08:58:22;100489.50;;;26.98;29.65
26823;BME280;14852;51.910;8.878;2023-05-29T09:00:49;100487.63;;;26.90;29.24
26823;BME280;14852;51.910;8.878;2023-05-29T09:03:16;100487.13;;;26.79;28.93
26823;BME280;14852;51.910;8.878;2023-05-29T09:05:44;100487.81;;;26.73;29.41
26823;BME280;14852;51.910;8.878;2023-05-29T09:08:11;100483.47;;;26.72;29.68
26823;BME280;14852;51.910;8.878;2023-05-29T09:10:45;100490.31;;;26.74;29.63
26823;BME280;14852;51.910;8.878;2023-05-29T09:13:12;100493.47;;;26.69;29.32
26823;BME280;14852;51.910;8.878;2023-05-29T09:15:40;100486.28;;;26.70;29.30
26823;BME280;14852;51.910;8.878;2023-05-29T09:18:08;100498.13;;;26.59;28.95
26823;BME280;14852;51.910;8.878;2023-05-29T09:20:34;100510.25;;;26.54;29.03
26823;BME280;14852;51.910;8.878;2023-05-29T09:23:04;100513.44;;;26.49;29.33
26823;BME280;14852;51.910;8.878;2023-05-29T09:25:32;100508.94;;;26.50;29.40
26823;BME280;14852;51.910;8.878;2023-05-29T09:28:06;100507.13;;;26.66;29.60
26823;BME280;14852;51.910;8.878;2023-05-29T09:30:45;100512.13;;;26.69;29.35
26823;BME280;14852;51.910;8.878;2023-05-29T09:33:14;100507.13;;;26.58;29.13
26823;BME280;14852;51.910;8.878;2023-05-29T09:35:46;100521.59;;;26.40;29.03
26823;BME280;14852;51.910;8.878;2023-05-29T09:38:17;100507.88;;;26.18;29.23
26823;BME280;14852;51.910;8.878;2023-05-29T09:40:44;100506.31;;;26.08;29.53
26823;BME280;14852;51.910;8.878;2023-05-29T09:43:14;100504.91;;;26.29;29.00
26823;BME280;14852;51.910;8.878;2023-05-29T09:45:47;100507.75;;;26.44;29.38
26823;BME280;14852;51.910;8.878;2023-05-29T09:48:23;100503.28;;;26.53;29.32
26823;BME280;14852;51.910;8.878;2023-05-29T09:50:49;100499.44;;;26.47;29.41
26823;BME280;14852;51.910;8.878;2023-05-29T09:53:25;100501.44;;;26.45;29.39
26823;BME280;14852;51.910;8.878;2023-05-29T09:55:54;100504.13;;;26.53;28.81
26823;BME280;14852;51.910;8.878;2023-05-29T09:58:21;100503.47;;;26.51;29.25
26823;BME280;14852;51.910;8.878;2023-05-29T10:00:48;100502.09;;;26.55;29.28
26823;BME280;14852;51.910;8.878;2023-05-29T10:03:15;100495.81;;;26.64;29.14
26823;BME280;14852;51.910;8.878;2023-05-29T10:05:43;100500.28;;;26.80;29.27
26823;BME280;14852;51.910;8.878;2023-05-29T10:08:13;100489.44;;;26.65;29.55
26823;BME280;14852;51.910;8.878;2023-05-29T10:10:56;100497.81;;;26.62;29.46
26823;BME280;14852;51.910;8.878;2023-05-29T10:13:26;100489.13;;;26.60;29.49
26823;BME280;14852;51.910;8.878;2023-05-29T10:15:55;100492.47;;;26.62;29.38
26823;BME280;14852;51.910;8.878;2023-05-29T10:18:27;100489.97;;;26.61;29.02
26823;BME280;14852;51.910;8.878;2023-05-29T10:20:57;100497.25;;;26.43;29.78
26823;BME280;14852;51.910;8.878;2023-05-29T10:23:25;100494.75;;;26.33;29.65
26823;BME280;14852;51.910;8.878;2023-05-29T10:25:53;100505.00;;;26.20;29.50
26823;BME280;14852;51.910;8.878;2023-05-29T10:28:25;100502.88;;;26.23;29.68
26823;BME280;14852;51.910;8.878;2023-05-29T10:31:03;100498.59;;;26.30;29.70
26823;BME280;14852;51.910;8.878;2023-05-29T10:36:21;100494.72;;;26.25;29.21
26823;BME280;14852;51.910;8.878;2023-05-29T10:38:50;100495.47;;;25.93;30.10
26823;BME280;14852;51.910;8.878;2023-05-29T10:43:59;100489.81;;;25.96;29.76
26823;BME280;14852;51.910;8.878;2023-05-29T10:49:20;100495.19;;;26.20;29.30
26823;BME280;14852;51.910;8.878;2023-05-29T10:51:46;100495.66;;;26.08;29.81
26823;BME280;14852;51.910;8.878;2023-05-29T10:54:12;100498.47;;;25.98;29.43
26823;BME280;14852;51.910;8.878;2023-05-29T10:56:57;100486.03;;;26.07;29.95
26823;BME280;14852;51.910;8.878;2023-05-29T10:59:23;100484.81;;;25.93;30.63
26823;BME280;14852;51.910;8.878;2023-05-29T11:01:54;100484.91;;;25.75;30.05
26823;BME280;14852;51.910;8.878;2023-05-29T11:06:46;100480.91;;;25.71;29.95
26823;BME280;14852;51.910;8.878;2023-05-29T11:09:36;100488.22;;;25.77;29.67
26823;BME280;14852;51.910;8.878;2023-05-29T11:12:25;100488.16;;;25.95;29.58
26823;BME280;14852;51.910;8.878;2023-05-29T11:15:08;100478.00;;;25.98;29.37
26823;BME280;14852;51.910;8.878;2023-05-29T11:25:23;100480.94;;;26.29;28.88
26823;BME280;14852;51.910;8.878;2023-05-29T11:27:49;100478.56;;;26.26;29.46
26823;BME280;14852;51.910;8.878;2023-05-29T11:30:18;100476.78;;;26.35;28.76
26823;BME280;14852;51.910;8.878;2023-05-29T11:32:46;100470.44;;;26.44;28.88
26823;BME280;14852;51.910;8.878;2023-05-29T11:35:17;100463.66;;;26.42;28.84
26823;BME280;14852;51.910;8.878;2023-05-29T11:37:44;100472.72;;;26.23;29.39
26823;BME280;14852;51.910;8.878;2023-05-29T11:40:15;100472.66;;;25.98;29.28
26823;BME280;14852;51.910;8.878;2023-05-29T11:42:42;100477.81;;;25.92;29.20
26823;BME280;14852;51.910;8.878;2023-05-29T11:45:17;100475.16;;;26.00;28.98
26823;BME280;14852;51.910;8.878;2023-05-29T11:47:57;100471.19;;;26.04;29.03
26823;BME280;14852;51.910;8.878;2023-05-29T11:50:25;100471.88;;;26.06;28.67
26823;BME280;14852;51.910;8.878;2023-05-29T11:52:51;100463.69;;;26.00;28.92
26823;BME280;14852;51.910;8.878;2023-05-29T11:55:19;100468.13;;;25.83;29.23
26823;BME280;14852;51.910;8.878;2023-05-29T11:57:50;100458.72;;;25.63;29.65
26823;BME280;14852;51.910;8.878;2023-05-29T12:00:18;100466.94;;;25.43;29.76
26823;BME280;14852;51.910;8.878;2023-05-29T12:02:45;100459.75;;;25.36;30.12
26823;BME280;14852;51.910;8.878;2023-05-29T12:05:15;100462.44;;;25.44;29.79
26823;BME280;14852;51.910;8.878;2023-05-29T12:07:55;100467.44;;;25.47;29.87
26823;BME280;14852;51.910;8.878;2023-05-29T12:10:27;100457.97;;;25.52;30.32
26823;BME280;14852;51.910;8.878;2023-05-29T12:12:59;100448.97;;;25.71;29.61
26823;BME280;14852;51.910;8.878;2023-05-29T12:15:28;100461.94;;;25.74;29.65
26823;BME280;14852;51.910;8.878;2023-05-29T12:17:55;100462.59;;;25.76;29.48
26823;BME280;14852;51.910;8.878;2023-05-29T12:20:25;100453.84;;;25.92;29.34
26823;BME280;14852;51.910;8.878;2023-05-29T12:23:02;100457.03;;;26.04;29.18
26823;BME280;14852;51.910;8.878;2023-05-29T12:25:28;100463.06;;;26.14;29.08
26823;BME280;14852;51.910;8.878;2023-05-29T12:27:58;100469.53;;;26.19;29.05
26823;BME280;14852;51.910;8.878;2023-05-29T12:30:24;100462.06;;;26.07;29.41
26823;BME280;14852;51.910;8.878;2023-05-29T12:32:52;100458.47;;;25.82;29.68
26823;BME280;14852;51.910;8.878;2023-05-29T12:35:23;100463.06;;;25.64;29.63
26823;BME280;14852;51.910;8.878;2023-05-29T12:38:07;100459.03;;;25.59;30.06
26823;BME280;14852;51.910;8.878;2023-05-29T12:40:37;100456.75;;;25.65;30.02
26823;BME280;14852;51.910;8.878;2023-05-29T12:43:06;100453.34;;;25.54;29.96
26823;BME280;14852;51.910;8.878;2023-05-29T12:45:33;100444.78;;;25.35;29.93
26823;BME280;14852;51.910;8.878;2023-05-29T12:48:04;100449.72;;;25.30;30.17
26823;BME280;14852;51.910;8.878;2023-05-29T12:50:37;100454.47;;;25.18;30.65
26823;BME280;14852;51.910;8.878;2023-05-29T12:53:12;100447.06;;;25.04;30.59
26823;BME280;14852;51.910;8.878;2023-05-29T12:55:43;100444.63;;;25.10;30.68
26823;BME280;14852;51.910;8.878;2023-05-29T12:58:12;100447.47;;;25.17;30.14
26823;BME280;14852;51.910;8.878;2023-05-29T13:00:41;100446.22;;;25.29;30.49
26823;BME280;14852;51.910;8.878;2023-05-29T13:03:08;100443.56;;;25.29;30.07
26823;BME280;14852;51.910;8.878;2023-05-29T13:05:34;100447.59;;;25.33;30.25
26823;BME280;14852;51.910;8.878;2023-05-29T13:08:01;100451.63;;;25.37;30.12
26823;BME280;14852;51.910;8.878;2023-05-29T13:10:27;100452.34;;;25.21;30.28
26823;BME280;14852;51.910;8.878;2023-05-29T13:12:54;100448.53;;;25.24;30.39
26823;BME280;14852;51.910;8.878;2023-05-29T13:15:22;100448.44;;;25.34;30.48
26823;BME280;14852;51.910;8.878;2023-05-29T13:17:48;100448.31;;;25.43;30.56